createdAt,value
2022-10-14T00:00:49.128Z,24.40
2022-10-14T00:03:19.633Z,24.40
2022-10-14T00:05:50.134Z,24.40
2022-10-14T00:08:22.375Z,24.40
2022-10-14T00:10:53.206Z,24.40
2022-10-14T00:13:23.924Z,24.40
2022-10-14T00:15:54.569Z,24.40
2022-10-14T00:18:26.910Z,24.50
2022-10-14T00:20:59.909Z,24.50
2022-10-14T00:23:31.575Z,24.50
2022-10-14T00:26:02.374Z,24.60
2022-10-14T00:28:33.874Z,24.60
2022-10-14T00:31:04.951Z,24.60
2022-10-14T00:33:35.550Z,24.60
2022-10-14T00:36:08.376Z,24.70
2022-10-14T00:38:40.665Z,24.70
2022-10-14T00:41:12.843Z,24.80
2022-10-14T00:43:46.015Z,24.80
2022-10-14T00:46:16.641Z,24.80
2022-10-14T00:48:47.729Z,24.80
2022-10-14T00:51:18.588Z,24.90
2022-10-14T00:53:49.722Z,24.90
2022-10-14T00:56:22.796Z,25.00
2022-10-14T00:58:54.716Z,25.00
2022-10-14T01:01:27.375Z,25.10
2022-10-14T01:03:58.253Z,25.20
2022-10-14T01:06:32.754Z,25.10
2022-10-14T01:09:07.384Z,25.20
2022-10-14T01:11:38.969Z,25.20
2022-10-14T01:14:12.362Z,25.20
2022-10-14T01:16:45.758Z,25.20
2022-10-14T01:19:18.944Z,25.30
2022-10-14T01:21:52.076Z,25.30
2022-10-14T01:24:25.442Z,25.40
2022-10-14T01:26:59.345Z,25.50
2022-10-14T01:29:32.465Z,25.60
2022-10-14T01:32:05.526Z,25.70
2022-10-14T01:34:38.645Z,25.70
2022-10-14T01:37:11.810Z,25.80
2022-10-14T01:39:44.999Z,25.90
2022-10-14T01:42:20.026Z,25.90
2022-10-14T01:44:53.637Z,26.00
2022-10-14T01:47:27.260Z,26.00
2022-10-14T01:50:00.621Z,26.00
2022-10-14T01:52:33.933Z,26.10
2022-10-14T01:55:07.387Z,26.10
2022-10-14T01:57:40.673Z,26.10
2022-10-14T02:00:12.484Z,26.20
2022-10-14T02:02:44.575Z,26.20
2022-10-14T02:05:21.599Z,26.30
2022-10-14T02:07:54.877Z,26.30
2022-10-14T02:10:27.136Z,26.40
2022-10-14T02:13:00.286Z,26.50
2022-10-14T02:15:33.426Z,26.60
2022-10-14T02:18:06.482Z,26.70
2022-10-14T02:20:39.602Z,26.70
2022-10-14T02:23:13.252Z,26.80
2022-10-14T02:25:46.863Z,26.90
2022-10-14T02:28:20.240Z,26.90
2022-10-14T02:30:53.291Z,26.90
2022-10-14T02:33:26.795Z,26.90
2022-10-14T02:35:59.201Z,26.90
2022-10-14T02:38:30.767Z,26.90
2022-10-14T02:41:04.101Z,27.00
2022-10-14T02:43:35.006Z,27.10
2022-10-14T02:46:06.826Z,27.10
2022-10-14T02:48:37.323Z,27.20
2022-10-14T02:51:08.093Z,27.30
2022-10-14T02:53:39.273Z,27.40
2022-10-14T02:56:10.697Z,27.40
2022-10-14T02:58:41.506Z,27.50
2022-10-14T03:01:12.428Z,27.50
2022-10-14T03:03:43.355Z,27.70
2022-10-14T03:06:14.052Z,27.70
2022-10-14T03:08:44.903Z,27.80
2022-10-14T03:11:15.565Z,27.90
2022-10-14T03:13:48.235Z,28.00
2022-10-14T03:16:19.045Z,28.10
2022-10-14T03:18:49.835Z,28.20
2022-10-14T03:21:24.960Z,28.30
2022-10-14T03:23:55.140Z,28.30
2022-10-14T03:26:25.892Z,28.40
2022-10-14T03:28:57.101Z,28.40
2022-10-14T03:31:30.910Z,28.50
2022-10-14T03:34:01.863Z,28.40
2022-10-14T03:36:33.382Z,28.50
2022-10-14T03:39:11.786Z,28.50
2022-10-14T03:41:42.572Z,28.50
2022-10-14T03:44:14.991Z,28.60
2022-10-14T03:46:45.956Z,28.60
2022-10-14T03:49:16.475Z,28.70
2022-10-14T03:51:47.253Z,28.80
2022-10-14T03:54:17.950Z,28.90
2022-10-14T03:56:48.457Z,28.90
2022-10-14T03:59:19.390Z,28.90
2022-10-14T04:01:51.502Z,29.10
2022-10-14T04:04:22.195Z,29.20
2022-10-14T04:06:52.922Z,29.20
2022-10-14T04:09:24.120Z,29.30
2022-10-14T04:11:59.793Z,29.40
2022-10-14T04:14:30.811Z,29.40
2022-10-14T04:17:01.479Z,29.40
2022-10-14T04:19:32.764Z,29.40
2022-10-14T04:22:03.410Z,29.40
2022-10-14T04:24:34.220Z,29.50
2022-10-14T04:27:08.965Z,29.50
2022-10-14T04:29:39.648Z,29.70
2022-10-14T04:32:10.200Z,29.70
2022-10-14T04:34:40.958Z,29.80
2022-10-14T04:37:11.877Z,29.80
2022-10-14T04:39:42.613Z,29.80
2022-10-14T04:42:13.122Z,29.90
2022-10-14T04:44:43.859Z,29.90
2022-10-14T04:47:14.812Z,30.00
2022-10-14T04:49:45.503Z,30.10
2022-10-14T04:52:16.205Z,30.10
2022-10-14T04:54:47.057Z,30.10
2022-10-14T04:57:17.533Z,30.10
2022-10-14T04:59:48.180Z,30.10
2022-10-14T05:02:18.837Z,30.10
2022-10-14T05:04:50.220Z,30.10
2022-10-14T05:07:21.209Z,30.10
2022-10-14T05:09:56.218Z,30.10
2022-10-14T05:12:24.643Z,30.10
2022-10-14T05:14:56.328Z,30.10
2022-10-14T05:17:29.721Z,30.10
2022-10-14T05:20:01.695Z,30.10
2022-10-14T05:22:32.605Z,30.20
2022-10-14T05:25:04.074Z,30.20
2022-10-14T05:27:34.745Z,30.30
2022-10-14T05:30:06.289Z,30.30
2022-10-14T05:32:37.685Z,30.40
2022-10-14T05:35:08.856Z,30.50
2022-10-14T05:37:39.586Z,30.50
2022-10-14T05:40:11.111Z,30.50
2022-10-14T05:42:41.969Z,30.50
2022-10-14T05:45:13.111Z,30.50
2022-10-14T05:47:46.134Z,30.50
2022-10-14T05:50:17.504Z,30.50
2022-10-14T05:52:49.834Z,30.40
2022-10-14T05:55:20.586Z,30.40
2022-10-14T05:57:51.427Z,30.50
2022-10-14T06:00:25.732Z,30.50
2022-10-14T06:02:54.732Z,30.60
2022-10-14T06:05:25.926Z,30.60
2022-10-14T06:07:59.875Z,30.60
2022-10-14T06:10:30.797Z,30.70
2022-10-14T06:13:01.514Z,30.70
2022-10-14T06:15:33.787Z,30.80
2022-10-14T06:18:04.296Z,30.80
2022-10-14T06:20:34.968Z,30.90
2022-10-14T06:23:06.941Z,30.90
2022-10-14T06:25:39.319Z,31.00
2022-10-14T06:28:11.159Z,31.00
2022-10-14T06:30:41.735Z,31.10
2022-10-14T06:33:12.845Z,31.10
2022-10-14T06:35:43.792Z,31.10
2022-10-14T06:38:15.235Z,31.10
2022-10-14T06:40:47.357Z,31.10
2022-10-14T06:43:20.692Z,31.10
2022-10-14T06:45:51.907Z,31.10
2022-10-14T06:48:22.999Z,31.10
2022-10-14T06:50:54.322Z,31.00
2022-10-14T06:53:25.166Z,31.00
2022-10-14T06:55:58.340Z,30.90
2022-10-14T06:58:32.580Z,30.90
2022-10-14T07:01:05.392Z,30.80
2022-10-14T07:03:38.274Z,30.80
2022-10-14T07:06:10.776Z,30.70
2022-10-14T07:08:41.750Z,30.60
2022-10-14T07:11:13.219Z,30.60
2022-10-14T07:13:44.097Z,30.60
2022-10-14T07:16:16.774Z,30.50
2022-10-14T07:18:47.515Z,30.40
2022-10-14T07:21:18.343Z,30.30
2022-10-14T07:23:49.445Z,30.30
2022-10-14T07:26:20.360Z,30.20
2022-10-14T07:28:51.118Z,30.30
2022-10-14T07:31:22.467Z,30.20
2022-10-14T07:33:53.480Z,30.20
2022-10-14T07:36:25.576Z,30.20
2022-10-14T07:38:56.454Z,30.10
2022-10-14T07:41:28.206Z,30.10
2022-10-14T07:44:03.014Z,30.00
2022-10-14T07:46:35.457Z,30.00
2022-10-14T07:49:08.660Z,30.00
2022-10-14T07:51:40.025Z,29.90
2022-10-14T07:54:13.704Z,30.00
2022-10-14T07:56:50.891Z,29.90
2022-10-14T07:59:23.091Z,29.90
2022-10-14T08:01:55.130Z,29.90
2022-10-14T08:04:27.114Z,29.90
2022-10-14T08:06:58.853Z,29.90
2022-10-14T08:09:29.702Z,29.90
2022-10-14T08:12:01.048Z,29.90
2022-10-14T08:14:31.933Z,29.90
2022-10-14T08:17:02.788Z,29.90
2022-10-14T08:19:33.497Z,29.90
2022-10-14T08:22:04.791Z,29.80
2022-10-14T08:24:35.637Z,29.80
2022-10-14T08:27:08.012Z,29.90
2022-10-14T08:29:38.634Z,29.90
2022-10-14T08:32:09.459Z,29.90
2022-10-14T08:34:40.726Z,29.90
2022-10-14T08:37:14.111Z,30.00
2022-10-14T08:39:44.948Z,30.00
2022-10-14T08:42:18.698Z,29.90
2022-10-14T08:44:52.062Z,29.90
2022-10-14T08:47:25.333Z,29.90
2022-10-14T08:50:01.403Z,29.90
2022-10-14T08:52:37.542Z,29.80
2022-10-14T08:55:09.655Z,29.80
2022-10-14T08:57:43.238Z,29.80
2022-10-14T09:00:17.959Z,29.80
2022-10-14T09:02:51.245Z,29.80
2022-10-14T09:05:24.668Z,29.80
2022-10-14T09:07:57.847Z,29.70
2022-10-14T09:10:31.084Z,29.70
2022-10-14T09:13:04.955Z,29.60
2022-10-14T09:15:38.273Z,29.60
2022-10-14T09:18:11.544Z,29.60
2022-10-14T09:20:43.620Z,29.50
2022-10-14T09:23:16.970Z,29.50
2022-10-14T09:25:50.402Z,29.50
2022-10-14T09:28:21.267Z,29.50
2022-10-14T09:30:52.541Z,29.50
2022-10-14T09:33:23.715Z,29.50
2022-10-14T09:36:00.479Z,29.40
2022-10-14T09:38:30.246Z,29.50
2022-10-14T09:41:02.291Z,29.40
2022-10-14T09:43:33.590Z,29.40
2022-10-14T09:46:11.278Z,29.40
2022-10-14T09:49:01.624Z,29.40
2022-10-14T09:51:35.611Z,29.40
2022-10-14T09:54:07.388Z,29.30
2022-10-14T09:59:31.435Z,29.10
2022-10-14T10:02:05.813Z,29.10
2022-10-14T10:04:38.285Z,29.00
2022-10-14T10:07:11.885Z,29.00
2022-10-14T10:09:43.127Z,28.90
2022-10-14T10:12:16.364Z,28.90
2022-10-14T10:14:49.468Z,28.80
2022-10-14T10:17:22.034Z,28.80
2022-10-14T10:19:54.687Z,28.80
2022-10-14T10:22:27.688Z,28.80
2022-10-14T10:25:00.933Z,28.80
2022-10-14T10:27:35.687Z,28.70
2022-10-14T10:30:10.084Z,28.70
2022-10-14T10:32:43.832Z,28.70
2022-10-14T10:35:17.090Z,28.80
2022-10-14T10:37:49.724Z,28.80
2022-10-14T10:40:21.741Z,28.80
2022-10-14T10:43:03.398Z,28.70
2022-10-14T10:45:43.545Z,28.70
2022-10-14T10:48:17.960Z,28.70
2022-10-14T10:50:51.917Z,28.60
2022-10-14T10:53:25.122Z,28.60
2022-10-14T10:56:00.969Z,28.60
2022-10-14T10:58:35.482Z,28.60
2022-10-14T11:01:08.615Z,28.50
2022-10-14T11:03:38.580Z,28.50
2022-10-14T11:06:20.818Z,28.50
2022-10-14T11:08:55.422Z,28.40
2022-10-14T11:11:31.595Z,28.40
2022-10-14T11:14:03.222Z,28.40
2022-10-14T11:16:36.536Z,28.40
2022-10-14T11:19:12.352Z,28.40
2022-10-14T11:21:47.133Z,28.30
2022-10-14T11:24:18.050Z,28.30
2022-10-14T11:26:51.252Z,28.30
2022-10-14T11:29:24.503Z,28.30
2022-10-14T11:31:58.540Z,28.20
2022-10-14T11:34:32.565Z,28.20
2022-10-14T11:37:04.052Z,28.20
2022-10-14T11:39:36.884Z,28.20
2022-10-14T11:42:11.935Z,28.20
2022-10-14T11:44:45.171Z,28.20
2022-10-14T11:47:18.953Z,28.20
2022-10-14T11:49:49.854Z,28.20
2022-10-14T11:52:23.105Z,28.20
2022-10-14T11:54:56.483Z,28.10
2022-10-14T11:57:31.407Z,28.10
2022-10-14T12:00:04.565Z,28.10
2022-10-14T12:02:37.874Z,28.10
2022-10-14T12:05:13.893Z,28.10
2022-10-14T12:07:47.288Z,28.10
2022-10-14T12:10:21.065Z,28.10
2022-10-14T12:12:57.629Z,28.10
2022-10-14T12:15:31.862Z,28.10
2022-10-14T12:18:04.312Z,28.10
2022-10-14T12:20:37.725Z,28.10
2022-10-14T12:23:11.434Z,28.10
2022-10-14T12:25:44.882Z,28.10
2022-10-14T12:28:17.738Z,28.10
2022-10-14T12:30:52.141Z,28.10
2022-10-14T12:33:23.289Z,28.10
2022-10-14T12:35:55.605Z,28.10
2022-10-14T12:38:27.219Z,28.00
2022-10-14T12:41:00.539Z,28.00
2022-10-14T12:43:31.798Z,28.00
2022-10-14T12:46:05.233Z,28.00
2022-10-14T12:48:38.322Z,28.00
2022-10-14T12:51:10.189Z,27.90
2022-10-14T12:53:43.151Z,27.90
2022-10-14T12:56:16.686Z,27.90
2022-10-14T12:58:50.359Z,27.90
2022-10-14T13:01:29.024Z,27.90
2022-10-14T13:06:36.699Z,27.90
2022-10-14T13:09:10.016Z,27.80
2022-10-14T13:11:43.289Z,27.80
2022-10-14T13:14:16.658Z,27.80
2022-10-14T13:16:54.666Z,27.80
2022-10-14T13:19:31.399Z,27.90
2022-10-14T13:22:04.132Z,27.90
2022-10-14T13:24:37.446Z,27.90
2022-10-14T13:27:09.304Z,27.90
2022-10-14T13:29:43.001Z,28.00
2022-10-14T13:35:08.111Z,27.90
2022-10-14T13:37:45.724Z,28.00
2022-10-14T13:40:24.477Z,28.00
2022-10-14T13:42:58.003Z,27.90
2022-10-14T13:45:31.053Z,27.80
2022-10-14T13:48:02.862Z,27.80
2022-10-14T13:50:36.038Z,27.70
2022-10-14T13:53:10.720Z,27.60
2022-10-14T13:55:43.862Z,27.60
2022-10-14T13:58:17.162Z,27.60
2022-10-14T14:00:50.595Z,27.60
2022-10-14T14:03:23.747Z,27.60
2022-10-14T14:05:55.370Z,27.60
2022-10-14T14:08:46.441Z,27.60
2022-10-14T14:11:16.776Z,27.50
2022-10-14T14:14:01.633Z,27.50
2022-10-14T14:16:29.325Z,27.40
2022-10-14T14:19:08.249Z,27.40
2022-10-14T14:21:35.996Z,27.40
2022-10-14T14:24:15.440Z,27.40
2022-10-14T14:26:46.760Z,27.40
2022-10-14T14:32:15.243Z,27.40
2022-10-14T14:34:49.998Z,27.50
2022-10-14T14:39:57.494Z,27.50
2022-10-14T14:42:29.922Z,27.50
2022-10-14T14:45:07.112Z,27.50
2022-10-14T14:47:46.897Z,27.50
2022-10-14T14:50:35.421Z,27.60
2022-10-14T14:52:53.246Z,27.50
2022-10-14T14:55:26.455Z,27.60
2022-10-14T14:58:05.009Z,27.60
2022-10-14T15:00:35.973Z,27.60
2022-10-14T15:03:06.868Z,27.50
2022-10-14T15:05:37.387Z,27.50
2022-10-14T15:08:08.208Z,27.50
2022-10-14T15:13:33.167Z,27.50
2022-10-14T15:16:03.851Z,27.50
2022-10-14T15:18:38.645Z,27.50
2022-10-14T15:21:12.083Z,27.40
2022-10-14T15:23:46.564Z,27.40
2022-10-14T15:26:27.388Z,27.40
2022-10-14T15:29:03.506Z,27.40
2022-10-14T15:31:34.514Z,27.40
2022-10-14T15:34:06.171Z,27.40
2022-10-14T15:36:37.858Z,27.40
2022-10-14T15:39:09.842Z,27.40
2022-10-14T15:41:40.407Z,27.30
2022-10-14T15:44:13.715Z,27.30
2022-10-14T15:46:50.782Z,27.30
2022-10-14T15:49:23.988Z,27.30
2022-10-14T15:51:54.714Z,27.20
2022-10-14T15:54:26.814Z,27.20
2022-10-14T15:56:58.944Z,27.20
2022-10-14T15:59:31.518Z,27.20
2022-10-14T16:02:02.095Z,27.20
2022-10-14T16:04:33.327Z,27.20
2022-10-14T16:07:03.946Z,27.20
2022-10-14T16:10:06.697Z,27.20
2022-10-14T16:12:40.005Z,27.20
2022-10-14T16:15:21.715Z,27.20
2022-10-14T16:23:44.545Z,27.10
2022-10-14T16:26:18.539Z,27.10
2022-10-14T16:28:58.514Z,27.10
2022-10-14T16:31:32.620Z,27.10
2022-10-14T16:34:06.598Z,27.10
2022-10-14T16:36:41.415Z,27.00
2022-10-14T16:42:22.439Z,27.00
2022-10-14T16:44:53.626Z,27.00
2022-10-14T16:47:30.694Z,27.00
2022-10-14T16:50:01.473Z,27.00
2022-10-14T16:52:35.125Z,26.90
2022-10-14T16:55:05.909Z,26.90
2022-10-14T16:57:36.930Z,27.00
2022-10-14T17:00:13.313Z,26.90
2022-10-14T17:02:43.941Z,27.00
2022-10-14T17:05:14.742Z,26.90
2022-10-14T17:07:48.404Z,27.00
2022-10-14T17:10:20.794Z,26.90
2022-10-14T17:12:51.473Z,26.90
2022-10-14T17:15:22.335Z,26.90
2022-10-14T17:17:54.297Z,27.00
2022-10-14T17:20:24.930Z,27.00
2022-10-14T17:22:58.147Z,26.90
2022-10-14T17:25:43.763Z,27.00
2022-10-14T17:28:56.964Z,26.90
2022-10-14T17:31:28.944Z,26.90
2022-10-14T17:34:01.364Z,26.90
2022-10-14T17:36:32.468Z,26.90
2022-10-14T17:39:03.390Z,26.90
2022-10-14T17:41:34.203Z,26.80
2022-10-14T17:44:04.934Z,26.80
2022-10-14T17:46:35.572Z,26.70
2022-10-14T17:49:11.740Z,26.70
2022-10-14T17:51:41.924Z,26.70
2022-10-14T17:54:14.532Z,26.70
2022-10-14T17:56:48.921Z,26.70
2022-10-14T17:59:20.143Z,26.70
2022-10-14T18:05:07.131Z,26.70
2022-10-14T18:07:39.540Z,26.60
2022-10-14T18:10:13.856Z,26.60
2022-10-14T18:12:44.589Z,26.60
2022-10-14T18:15:18.070Z,26.60
2022-10-14T18:17:49.967Z,26.60
2022-10-14T18:20:22.706Z,26.60
2022-10-14T18:22:53.845Z,26.60
2022-10-14T18:25:24.553Z,26.60
2022-10-14T18:27:55.243Z,26.70
2022-10-14T18:30:26.768Z,26.60
2022-10-14T18:33:00.370Z,26.70
2022-10-14T18:35:35.091Z,26.70
2022-10-14T18:38:05.928Z,26.70
2022-10-14T18:40:39.760Z,26.70
2022-10-14T18:43:10.891Z,26.70
2022-10-14T18:45:41.574Z,26.70
2022-10-14T18:48:15.175Z,26.70
2022-10-14T18:50:45.789Z,26.70
2022-10-14T18:53:17.089Z,26.70
2022-10-14T18:55:47.925Z,26.70
2022-10-14T18:58:18.665Z,26.70
2022-10-14T19:00:49.609Z,26.60
2022-10-14T19:03:20.343Z,26.60
2022-10-14T19:05:53.146Z,26.60
2022-10-14T19:08:24.085Z,26.60
2022-10-14T19:10:56.148Z,26.50
2022-10-14T19:13:30.133Z,26.50
2022-10-14T19:16:16.273Z,26.50
2022-10-14T19:18:47.320Z,26.50
2022-10-14T19:21:20.408Z,26.40
2022-10-14T19:23:52.254Z,26.40
2022-10-14T19:26:25.287Z,26.40
2022-10-14T19:28:57.326Z,26.40
2022-10-14T19:31:30.777Z,26.40
2022-10-14T19:34:03.634Z,26.30
2022-10-14T19:36:37.089Z,26.30
2022-10-14T19:39:10.476Z,26.30
2022-10-14T19:41:42.364Z,26.20
2022-10-14T19:44:14.355Z,26.20
2022-10-14T19:46:45.891Z,26.20
2022-10-14T19:49:17.695Z,26.10
2022-10-14T19:51:48.217Z,26.10
2022-10-14T19:54:18.785Z,25.90
2022-10-14T19:56:51.098Z,25.90
2022-10-14T19:59:21.685Z,25.80
2022-10-14T20:01:52.465Z,25.80
2022-10-14T20:04:25.246Z,25.60
2022-10-14T20:06:57.824Z,25.50
2022-10-14T20:09:31.314Z,25.40
2022-10-14T20:12:02.179Z,25.30
2022-10-14T20:14:34.625Z,25.30
2022-10-14T20:17:05.108Z,25.20
2022-10-14T20:19:38.344Z,25.10
2022-10-14T20:22:08.902Z,25.00
2022-10-14T20:24:40.948Z,25.00
2022-10-14T20:27:12.201Z,24.90
2022-10-14T20:29:43.215Z,24.90
2022-10-14T20:32:14.093Z,24.80
2022-10-14T20:34:45.169Z,24.70
2022-10-14T20:37:16.077Z,24.60
2022-10-14T20:39:46.645Z,24.60
2022-10-14T20:42:17.510Z,24.60
2022-10-14T20:44:48.108Z,24.60
2022-10-14T20:47:18.685Z,24.60
2022-10-14T20:49:49.185Z,24.50
2022-10-14T20:52:19.808Z,24.50
2022-10-14T20:54:50.304Z,24.40
2022-10-14T20:57:21.363Z,24.40
2022-10-14T20:59:52.042Z,24.30
2022-10-14T21:02:23.925Z,24.30
2022-10-14T21:04:55.427Z,24.30
2022-10-14T21:07:26.313Z,24.20
2022-10-14T21:09:57.053Z,24.20
2022-10-14T21:12:27.556Z,24.10
2022-10-14T21:14:58.035Z,24.10
2022-10-14T21:17:28.540Z,24.00
2022-10-14T21:19:59.147Z,24.10
2022-10-14T21:22:29.840Z,24.10
2022-10-14T21:25:00.451Z,24.00
2022-10-14T21:27:31.091Z,24.00
2022-10-14T21:30:03.171Z,23.90
2022-10-14T21:32:33.851Z,23.90
2022-10-14T21:35:04.466Z,23.90
2022-10-14T21:37:34.936Z,23.80
2022-10-14T21:40:06.059Z,23.70
2022-10-14T21:42:37.027Z,23.70
2022-10-14T21:45:09.918Z,23.70
2022-10-14T21:47:40.412Z,23.70
2022-10-14T21:50:11.294Z,23.60
2022-10-14T21:52:43.101Z,23.60
2022-10-14T21:55:13.779Z,23.60
2022-10-14T21:57:46.339Z,23.60
2022-10-14T22:00:20.005Z,23.60
2022-10-14T22:02:51.924Z,23.50
2022-10-14T22:05:22.911Z,23.50
2022-10-14T22:07:53.539Z,23.60
2022-10-14T22:10:25.538Z,23.60
2022-10-14T22:12:58.720Z,23.50
2022-10-14T22:15:29.429Z,23.50
2022-10-14T22:18:03.080Z,23.50
2022-10-14T22:20:35.727Z,23.50
2022-10-14T22:23:09.418Z,23.50
2022-10-14T22:25:43.160Z,23.40
2022-10-14T22:28:13.944Z,23.40
2022-10-14T22:37:41.265Z,23.50
2022-10-14T22:40:13.253Z,23.50
2022-10-14T22:42:49.026Z,23.40
2022-10-14T22:45:17.185Z,23.40
2022-10-14T22:47:51.096Z,23.40
2022-10-14T22:50:21.631Z,23.20
2022-10-14T22:52:52.167Z,23.20
2022-10-14T22:55:24.145Z,23.20
2022-10-14T22:57:54.822Z,23.20
2022-10-14T23:00:25.441Z,23.10
2022-10-14T23:02:58.807Z,23.10
2022-10-14T23:05:29.288Z,23.10
2022-10-14T23:08:02.913Z,23.10
2022-10-14T23:10:33.414Z,23.10
2022-10-14T23:13:04.086Z,23.10
2022-10-14T23:15:35.379Z,23.10
2022-10-14T23:18:06.265Z,23.20
2022-10-14T23:20:37.479Z,23.00
2022-10-14T23:23:08.021Z,23.00
2022-10-14T23:25:39.898Z,23.00
2022-10-14T23:28:13.339Z,23.00
2022-10-14T23:30:43.988Z,22.90
2022-10-14T23:33:14.713Z,22.90
2022-10-14T23:35:47.962Z,22.90
2022-10-14T23:38:18.768Z,22.90
2022-10-14T23:40:49.493Z,22.90
2022-10-14T23:43:20.425Z,22.90
2022-10-14T23:48:24.884Z,22.90
2022-10-14T23:50:56.169Z,22.80
2022-10-14T23:53:28.693Z,22.80
2022-10-14T23:55:59.702Z,22.60
2022-10-14T23:58:31.435Z,22.60
